createdAt,value
2019-05-16T00:00:29.011Z,10.57
2019-05-16T00:02:58.872Z,10.58
2019-05-16T00:05:28.101Z,10.59
2019-05-16T00:07:58.953Z,10.60
2019-05-16T00:10:28.170Z,10.61
2019-05-16T00:12:59.511Z,10.62
2019-05-16T00:15:28.741Z,10.62
2019-05-16T00:17:58.362Z,10.61
2019-05-16T00:20:28.362Z,10.62
2019-05-16T00:22:58.964Z,10.63
2019-05-16T00:25:28.638Z,10.62
2019-05-16T00:27:58.665Z,10.61
2019-05-16T00:30:28.719Z,10.61
2019-05-16T00:32:58.835Z,10.61
2019-05-16T00:35:28.535Z,10.61
2019-05-16T00:37:59.012Z,10.60
2019-05-16T00:40:27.937Z,10.60
2019-05-16T00:42:58.973Z,10.58
2019-05-16T00:45:29.442Z,10.59
2019-05-16T00:47:58.532Z,10.58
2019-05-16T00:50:28.797Z,10.57
2019-05-16T00:52:58.958Z,10.56
2019-05-16T00:55:28.632Z,10.55
2019-05-16T00:57:58.332Z,10.56
2019-05-16T01:00:45.430Z,10.54
2019-05-16T01:03:14.326Z,10.53
2019-05-16T01:05:43.684Z,10.52
2019-05-16T01:08:12.669Z,10.49
2019-05-16T01:10:41.454Z,10.45
2019-05-16T01:13:10.138Z,10.42
2019-05-16T01:15:38.846Z,10.43
2019-05-16T01:18:08.117Z,10.38
2019-05-16T01:20:38.649Z,10.37
2019-05-16T01:23:08.935Z,10.35
2019-05-16T01:25:38.821Z,10.35
2019-05-16T01:28:08.799Z,10.35
2019-05-16T01:30:38.080Z,10.35
2019-05-16T01:33:08.896Z,10.33
2019-05-16T01:35:38.576Z,10.32
2019-05-16T01:38:08.657Z,10.31
2019-05-16T01:40:38.730Z,10.30
2019-05-16T01:43:08.586Z,10.30
2019-05-16T01:45:38.426Z,10.27
2019-05-16T01:48:08.271Z,10.25
2019-05-16T01:50:38.815Z,10.24
2019-05-16T01:53:08.696Z,10.22
2019-05-16T01:55:38.166Z,10.17
2019-05-16T01:58:08.036Z,10.14
2019-05-16T02:00:47.818Z,10.11
2019-05-16T02:03:08.284Z,10.05
2019-05-16T02:05:38.722Z,10.01
2019-05-16T02:08:08.825Z,9.96
2019-05-16T02:10:37.992Z,9.89
2019-05-16T02:13:08.550Z,9.83
2019-05-16T02:15:38.308Z,9.79
2019-05-16T02:18:08.180Z,9.74
2019-05-16T02:20:39.279Z,9.69
2019-05-16T02:23:08.022Z,9.64
2019-05-16T02:25:38.125Z,9.60
2019-05-16T02:28:07.157Z,9.55
2019-05-16T02:30:35.880Z,9.53
2019-05-16T02:33:04.456Z,9.50
2019-05-16T02:35:32.990Z,9.50
2019-05-16T02:38:01.539Z,9.48
2019-05-16T02:40:31.295Z,9.45
2019-05-16T02:43:01.545Z,9.47
2019-05-16T02:45:32.589Z,9.46
2019-05-16T02:48:01.429Z,9.47
2019-05-16T02:50:31.582Z,9.47
2019-05-16T02:53:01.521Z,9.49
2019-05-16T02:55:30.929Z,9.48
2019-05-16T02:58:00.894Z,9.46
2019-05-16T03:00:42.631Z,9.46
2019-05-16T03:03:11.922Z,9.43
2019-05-16T03:05:42.134Z,9.42
2019-05-16T03:08:13.184Z,9.42
2019-05-16T03:10:41.871Z,9.42
2019-05-16T03:13:11.395Z,9.40
2019-05-16T03:15:41.110Z,9.37
2019-05-16T03:18:12.291Z,9.34
2019-05-16T03:20:42.068Z,9.32
2019-05-16T03:23:11.491Z,9.31
2019-05-16T03:25:41.762Z,9.28
2019-05-16T03:28:11.222Z,9.26
2019-05-16T03:30:44.599Z,9.23
2019-05-16T03:33:19.236Z,9.20
2019-05-16T03:35:44.589Z,9.18
2019-05-16T03:38:12.114Z,9.16
2019-05-16T03:40:41.344Z,9.13
2019-05-16T03:43:11.553Z,9.08
2019-05-16T03:45:41.695Z,9.04
2019-05-16T03:48:11.998Z,9.03
2019-05-16T03:50:41.390Z,9.03
2019-05-16T03:53:11.694Z,9.03
2019-05-16T03:55:40.908Z,9.04
2019-05-16T03:58:11.707Z,9.07
2019-05-16T04:00:52.055Z,9.10
2019-05-16T04:03:21.218Z,9.12
2019-05-16T04:05:52.705Z,9.14
2019-05-16T04:08:24.926Z,9.18
2019-05-16T04:10:52.093Z,9.18
2019-05-16T04:13:21.740Z,9.18
2019-05-16T04:15:52.379Z,9.19
2019-05-16T04:18:21.924Z,9.20
2019-05-16T04:20:52.477Z,9.21
2019-05-16T04:23:21.522Z,9.20
2019-05-16T04:25:52.120Z,9.20
2019-05-16T04:28:22.083Z,9.22
2019-05-16T04:30:51.571Z,9.23
2019-05-16T04:33:22.215Z,9.24
2019-05-16T04:35:52.487Z,9.29
2019-05-16T04:38:34.387Z,9.31
2019-05-16T04:40:52.224Z,9.35
2019-05-16T04:43:22.194Z,9.39
2019-05-16T04:45:52.254Z,9.43
2019-05-16T04:48:22.283Z,9.45
2019-05-16T04:50:52.306Z,9.51
2019-05-16T04:53:21.471Z,9.56
2019-05-16T04:55:51.895Z,9.62
2019-05-16T04:58:23.171Z,9.64
2019-05-16T05:00:52.118Z,9.66
2019-05-16T05:03:21.857Z,9.69
2019-05-16T05:05:51.273Z,9.74
2019-05-16T05:08:22.034Z,9.77
2019-05-16T05:10:51.603Z,9.79
2019-05-16T05:13:22.072Z,9.82
2019-05-16T05:15:51.258Z,9.83
2019-05-16T05:18:21.345Z,9.86
2019-05-16T05:20:52.531Z,9.88
2019-05-16T05:23:21.233Z,9.86
2019-05-16T05:25:51.340Z,9.87
2019-05-16T05:28:21.102Z,9.88
2019-05-16T05:30:50.448Z,9.89
2019-05-16T05:33:21.026Z,9.93
2019-05-16T05:35:50.684Z,9.97
2019-05-16T05:38:21.367Z,10.02
2019-05-16T05:40:51.059Z,10.09
2019-05-16T05:43:21.461Z,10.13
2019-05-16T05:45:51.180Z,10.17
2019-05-16T05:48:21.751Z,10.16
2019-05-16T05:50:51.128Z,10.15
2019-05-16T05:53:20.863Z,10.17
2019-05-16T05:55:51.318Z,10.16
2019-05-16T05:58:20.929Z,10.20
2019-05-16T06:00:51.908Z,10.24
2019-05-16T06:03:22.362Z,10.26
2019-05-16T06:05:50.566Z,10.27
2019-05-16T06:08:20.439Z,10.28
2019-05-16T06:10:50.347Z,10.27
2019-05-16T06:13:20.602Z,10.28
2019-05-16T06:15:50.935Z,10.27
2019-05-16T06:18:19.941Z,10.24
2019-05-16T06:20:51.150Z,10.26
2019-05-16T06:23:20.575Z,10.26
2019-05-16T06:25:50.771Z,10.29
2019-05-16T06:28:20.855Z,10.32
2019-05-16T06:30:51.403Z,10.36
2019-05-16T06:33:20.376Z,10.40
2019-05-16T06:35:51.461Z,10.45
2019-05-16T06:38:20.975Z,10.55
2019-05-16T06:40:52.565Z,10.66
2019-05-16T06:43:20.633Z,10.84
2019-05-16T06:45:51.252Z,11.08
2019-05-16T06:48:21.150Z,11.38
2019-05-16T06:50:51.466Z,11.63
2019-05-16T06:53:21.039Z,11.84
2019-05-16T06:55:50.181Z,12.06
2019-05-16T06:58:21.750Z,12.27
2019-05-16T07:00:52.268Z,12.44
2019-05-16T07:03:20.449Z,12.60
2019-05-16T07:05:50.383Z,12.84
2019-05-16T07:08:20.502Z,13.25
2019-05-16T07:10:50.716Z,14.12
2019-05-16T07:13:19.854Z,15.11
2019-05-16T07:15:50.149Z,15.91
2019-05-16T07:18:20.808Z,16.34
2019-05-16T07:20:50.989Z,16.99
2019-05-16T07:23:20.923Z,17.60
2019-05-16T07:25:50.644Z,17.98
2019-05-16T07:28:20.830Z,18.27
2019-05-16T07:30:50.129Z,18.49
2019-05-16T07:33:21.156Z,18.62
2019-05-16T07:35:51.201Z,18.22
2019-05-16T07:38:20.239Z,17.72
2019-05-16T07:40:51.208Z,17.09
2019-05-16T07:43:20.566Z,16.67
2019-05-16T07:45:51.282Z,16.38
2019-05-16T07:48:21.622Z,15.96
2019-05-16T07:50:50.350Z,15.61
2019-05-16T07:53:21.499Z,15.21
2019-05-16T07:55:50.912Z,14.98
2019-05-16T07:58:21.971Z,14.86
2019-05-16T08:01:02.091Z,14.81
2019-05-16T08:03:20.490Z,14.65
2019-05-16T08:05:51.520Z,14.50
2019-05-16T08:08:23.161Z,14.36
2019-05-16T08:10:51.230Z,14.22
2019-05-16T08:13:21.174Z,14.22
2019-05-16T08:15:50.596Z,14.16
2019-05-16T08:18:21.304Z,14.12
2019-05-16T08:20:52.193Z,14.04
2019-05-16T08:23:22.389Z,13.91
2019-05-16T08:25:51.025Z,13.85
2019-05-16T08:28:21.479Z,13.78
2019-05-16T08:35:51.585Z,13.65
2019-05-16T08:38:21.791Z,13.62
2019-05-16T08:41:06.435Z,13.61
2019-05-16T08:43:21.921Z,13.62
2019-05-16T08:45:51.795Z,13.77
2019-05-16T08:48:23.165Z,13.99
2019-05-16T08:53:21.784Z,14.39
2019-05-16T08:55:50.873Z,14.61
2019-05-16T08:58:22.775Z,14.71
2019-05-16T09:00:55.178Z,14.74
2019-05-16T09:03:22.157Z,14.80
2019-05-16T09:05:53.574Z,14.92
2019-05-16T09:08:21.165Z,15.06
2019-05-16T09:10:10.999Z,13.64
2019-05-16T09:10:39.201Z,13.73
2019-05-16T09:10:41.206Z,14.18
2019-05-16T09:11:00.737Z,15.46
2019-05-16T09:13:20.035Z,15.97
2019-05-16T09:15:48.842Z,16.35
2019-05-16T09:18:18.004Z,16.45
2019-05-16T09:20:49.924Z,16.27
2019-05-16T09:23:18.008Z,15.98
2019-05-16T09:25:48.908Z,15.89
2019-05-16T09:28:17.330Z,15.98
2019-05-16T09:30:46.934Z,16.27
2019-05-16T09:33:18.388Z,16.77
2019-05-16T09:35:47.698Z,17.52
2019-05-16T09:38:20.369Z,18.15
2019-05-16T09:40:47.990Z,18.87
2019-05-16T09:43:17.936Z,19.58
2019-05-16T09:45:47.353Z,20.31
2019-05-16T09:48:18.976Z,21.09
2019-05-16T09:50:47.043Z,21.41
2019-05-16T09:53:16.993Z,21.11
2019-05-16T09:55:46.974Z,21.20
2019-05-16T09:58:18.027Z,21.31
2019-05-16T10:00:47.626Z,20.84
2019-05-16T10:03:20.513Z,20.37
2019-05-16T10:05:47.067Z,19.96
2019-05-16T10:08:17.370Z,19.77
2019-05-16T10:10:46.145Z,19.84
2019-05-16T10:13:14.750Z,19.85
2019-05-16T10:15:43.265Z,19.71
2019-05-16T10:18:11.887Z,19.34
2019-05-16T10:20:40.460Z,18.99
2019-05-16T10:23:14.669Z,18.73
2019-05-16T10:25:39.381Z,18.72
2019-05-16T10:28:08.257Z,18.49
2019-05-16T10:30:37.679Z,18.21
2019-05-16T10:33:07.086Z,17.85
2019-05-16T10:35:37.306Z,17.53
2019-05-16T10:38:06.054Z,17.19
2019-05-16T10:40:36.810Z,16.97
2019-05-16T10:43:07.123Z,16.84
2019-05-16T10:45:36.929Z,16.82
2019-05-16T10:48:05.635Z,16.87
2019-05-16T10:50:36.806Z,17.03
2019-05-16T10:53:28.023Z,17.09
2019-05-16T10:55:36.783Z,17.03
2019-05-16T10:58:07.357Z,16.83
2019-05-16T11:01:05.485Z,16.79
2019-05-16T11:03:06.651Z,17.18
2019-05-16T11:05:38.878Z,17.59
2019-05-16T11:08:08.157Z,17.74
2019-05-16T11:10:37.290Z,17.97
2019-05-16T11:13:08.143Z,18.25
2019-05-16T11:15:37.410Z,18.43
2019-05-16T11:18:06.824Z,18.56
2019-05-16T11:20:37.395Z,18.51
2019-05-16T11:23:07.968Z,18.43
2019-05-16T11:25:36.789Z,18.35
2019-05-16T11:28:07.334Z,18.43
2019-05-16T11:30:37.530Z,18.62
2019-05-16T11:33:07.558Z,18.65
2019-05-16T11:35:38.155Z,18.47
2019-05-16T11:38:07.315Z,18.46
2019-05-16T11:40:35.967Z,18.35
2019-05-16T11:43:11.387Z,18.29
2019-05-16T11:45:36.755Z,18.05
2019-05-16T11:48:05.416Z,18.06
2019-05-16T11:50:37.036Z,18.08
2019-05-16T11:53:07.138Z,18.14
2019-05-16T11:55:46.273Z,18.04
2019-05-16T11:58:06.815Z,17.82
2019-05-16T12:00:37.310Z,17.59
2019-05-16T12:03:06.009Z,17.38
2019-05-16T12:05:37.135Z,17.21
2019-05-16T12:08:07.726Z,17.03
2019-05-16T12:10:36.321Z,16.87
2019-05-16T12:13:09.029Z,16.61
2019-05-16T12:15:36.663Z,16.47
2019-05-16T12:18:08.335Z,16.38
2019-05-16T12:20:35.800Z,16.40
2019-05-16T12:23:07.732Z,16.35
2019-05-16T12:25:36.797Z,16.25
2019-05-16T12:28:08.177Z,16.13
2019-05-16T12:30:37.703Z,16.08
2019-05-16T12:33:07.327Z,16.10
2019-05-16T12:35:36.949Z,16.06
2019-05-16T12:38:08.161Z,15.99
2019-05-16T12:40:37.567Z,15.94
2019-05-16T12:43:07.743Z,15.88
2019-05-16T12:45:38.638Z,15.86
2019-05-16T12:48:07.148Z,15.75
2019-05-16T12:50:38.865Z,15.75
2019-05-16T12:53:08.046Z,15.77
2019-05-16T12:55:36.927Z,15.83
2019-05-16T12:58:13.704Z,16.12
2019-05-16T13:00:37.115Z,16.38
2019-05-16T13:03:07.163Z,16.78
2019-05-16T13:05:37.690Z,17.17
2019-05-16T13:08:06.250Z,17.28
2019-05-16T13:10:37.717Z,17.26
2019-05-16T13:13:07.552Z,17.17
2019-05-16T13:15:37.923Z,16.97
2019-05-16T13:18:07.871Z,16.75
2019-05-16T13:20:39.251Z,16.67
2019-05-16T13:23:14.587Z,16.66
2019-05-16T13:25:37.120Z,16.75
2019-05-16T13:28:08.150Z,16.76
2019-05-16T13:30:37.791Z,16.70
2019-05-16T13:33:07.242Z,16.75
2019-05-16T13:35:37.026Z,16.92
2019-05-16T13:38:07.847Z,16.98
2019-05-16T13:40:36.276Z,17.15
2019-05-16T13:43:09.417Z,17.22
2019-05-16T13:45:37.498Z,17.20
2019-05-16T13:48:07.849Z,17.08
2019-05-16T13:50:37.268Z,17.08
2019-05-16T13:53:07.868Z,17.21
2019-05-16T13:55:37.813Z,17.24
2019-05-16T13:58:07.777Z,17.29
2019-05-16T14:00:37.506Z,17.47
2019-05-16T14:03:07.450Z,17.62
2019-05-16T14:05:37.951Z,17.63
2019-05-16T14:08:07.141Z,17.49
2019-05-16T14:10:37.474Z,17.25
2019-05-16T14:13:07.576Z,16.85
2019-05-16T14:15:36.893Z,16.48
2019-05-16T14:18:07.822Z,16.25
2019-05-16T14:20:37.672Z,16.06
2019-05-16T14:23:08.524Z,15.82
2019-05-16T14:25:37.942Z,15.59
2019-05-16T14:28:07.807Z,15.38
2019-05-16T14:30:37.410Z,15.19
2019-05-16T14:33:13.556Z,15.18
2019-05-16T14:35:37.592Z,15.13
2019-05-16T14:38:06.605Z,15.09
2019-05-16T14:40:37.362Z,15.10
2019-05-16T14:43:08.273Z,15.08
2019-05-16T14:45:37.164Z,14.99
2019-05-16T14:48:07.445Z,14.88
2019-05-16T14:50:37.583Z,14.80
2019-05-16T14:53:07.500Z,14.65
2019-05-16T14:55:38.155Z,14.66
2019-05-16T14:58:07.612Z,14.74
2019-05-16T15:00:38.300Z,14.85
2019-05-16T15:03:08.329Z,14.98
2019-05-16T15:05:42.428Z,15.04
2019-05-16T15:08:08.572Z,15.11
2019-05-16T15:10:37.868Z,15.13
2019-05-16T15:13:07.915Z,15.21
2019-05-16T15:15:37.629Z,15.23
2019-05-16T15:18:08.315Z,15.08
2019-05-16T15:20:37.120Z,14.99
2019-05-16T15:23:07.628Z,15.01
2019-05-16T15:25:37.525Z,14.93
2019-05-16T15:28:07.554Z,14.93
2019-05-16T15:30:39.101Z,14.88
2019-05-16T15:33:08.636Z,14.80
2019-05-16T15:35:38.226Z,14.78
2019-05-16T15:38:07.929Z,14.72
2019-05-16T15:40:37.698Z,14.68
2019-05-16T15:43:08.000Z,14.69
2019-05-16T15:45:44.192Z,14.69
2019-05-16T15:48:13.935Z,14.65
2019-05-16T15:50:44.518Z,14.68
2019-05-16T15:53:13.138Z,14.68
2019-05-16T15:56:00.019Z,14.57
2019-05-16T15:58:28.695Z,14.53
2019-05-16T16:00:58.124Z,14.53
2019-05-16T16:03:27.356Z,14.53
2019-05-16T16:05:56.436Z,14.60
2019-05-16T16:08:28.207Z,14.74
2019-05-16T16:10:55.489Z,14.79
2019-05-16T16:13:26.619Z,14.83
2019-05-16T16:15:55.325Z,14.80
2019-05-16T16:18:27.021Z,14.76
2019-05-16T16:20:57.113Z,14.72
2019-05-16T16:23:27.250Z,14.70
2019-05-16T16:25:59.701Z,14.69
2019-05-16T16:28:27.106Z,14.70
2019-05-16T16:30:56.905Z,14.69
2019-05-16T16:33:29.328Z,14.69
2019-05-16T16:35:57.206Z,14.52
2019-05-16T16:38:25.995Z,14.49
2019-05-16T16:40:57.163Z,14.45
2019-05-16T16:43:24.968Z,14.30
2019-05-16T16:46:06.237Z,14.13
2019-05-16T16:48:26.394Z,13.96
2019-05-16T16:50:54.244Z,13.85
2019-05-16T16:53:22.762Z,13.74
2019-05-16T16:55:51.880Z,13.64
2019-05-16T16:58:20.826Z,13.53
2019-05-16T17:00:49.517Z,13.48
2019-05-16T17:03:18.082Z,13.42
2019-05-16T17:05:46.659Z,13.35
2019-05-16T17:08:16.766Z,13.30
2019-05-16T17:10:47.632Z,13.25
2019-05-16T17:13:16.935Z,13.20
2019-05-16T17:15:47.267Z,13.14
2019-05-16T17:18:17.423Z,13.05
2019-05-16T17:20:47.690Z,12.96
2019-05-16T17:23:17.344Z,12.88
2019-05-16T17:25:47.214Z,12.79
2019-05-16T17:28:17.355Z,12.71
2019-05-16T17:30:47.093Z,12.66
2019-05-16T17:33:18.226Z,12.61
2019-05-16T17:35:48.846Z,12.56
2019-05-16T17:38:17.355Z,12.49
2019-05-16T17:40:46.535Z,12.47
2019-05-16T17:43:16.476Z,12.37
2019-05-16T17:45:47.076Z,12.32
2019-05-16T17:48:17.551Z,12.26
2019-05-16T17:50:47.267Z,12.24
2019-05-16T17:53:17.440Z,12.20
2019-05-16T17:55:47.839Z,12.16
2019-05-16T17:58:17.925Z,12.12
2019-05-16T18:00:47.533Z,12.09
2019-05-16T18:03:17.341Z,11.99
2019-05-16T18:05:47.666Z,11.91
2019-05-16T18:08:17.968Z,11.82
2019-05-16T18:10:48.489Z,11.74
2019-05-16T18:13:18.494Z,11.64
2019-05-16T18:15:48.674Z,11.59
2019-05-16T18:18:18.985Z,11.53
2019-05-16T18:20:57.901Z,11.50
2019-05-16T18:23:22.643Z,11.41
2019-05-16T18:25:53.722Z,11.36
2019-05-16T18:28:26.790Z,11.33
2019-05-16T18:30:58.215Z,11.29
2019-05-16T18:33:30.057Z,11.27
2019-05-16T18:36:57.082Z,11.26
2019-05-16T18:39:28.808Z,11.25
2019-05-16T18:42:00.779Z,11.16
2019-05-16T18:44:32.881Z,11.08
2019-05-16T18:47:10.457Z,11.04
2019-05-16T18:49:38.775Z,11.02
2019-05-16T18:52:10.061Z,11.00
2019-05-16T18:54:41.517Z,10.98
2019-05-16T18:58:08.318Z,10.95
2019-05-16T19:00:38.645Z,10.94
2019-05-16T19:03:09.421Z,10.87
2019-05-16T19:05:40.021Z,10.87
2019-05-16T19:08:10.438Z,10.89
2019-05-16T19:10:40.261Z,10.88
2019-05-16T19:13:12.428Z,10.85
2019-05-16T19:15:41.887Z,10.85
2019-05-16T19:21:56.722Z,10.83
2019-05-16T19:24:28.561Z,10.79
2019-05-16T19:26:59.297Z,10.77
2019-05-16T19:29:29.605Z,10.74
2019-05-16T19:32:00.798Z,10.71
2019-05-16T19:34:31.907Z,10.68
2019-05-16T19:37:03.172Z,10.70
2019-05-16T19:39:37.049Z,10.65
2019-05-16T19:45:49.380Z,10.60
2019-05-16T19:48:20.455Z,10.51
2019-05-16T19:50:51.542Z,10.47
2019-05-16T19:53:21.908Z,10.47
2019-05-16T19:55:56.386Z,10.44
2019-05-16T19:58:26.900Z,10.45
2019-05-16T20:00:58.285Z,10.43
2019-05-16T20:03:29.531Z,10.43
2019-05-16T20:06:54.022Z,10.43
2019-05-16T20:09:26.868Z,10.45
2019-05-16T20:11:59.175Z,10.43
2019-05-16T20:14:32.071Z,10.44
2019-05-16T20:17:03.612Z,10.44
2019-05-16T20:19:36.443Z,10.45
2019-05-16T20:22:07.890Z,10.44
2019-05-16T20:24:38.610Z,10.43
2019-05-16T20:27:19.602Z,10.44
2019-05-16T20:29:51.581Z,10.43
2019-05-16T20:32:22.093Z,10.40
2019-05-16T20:34:51.861Z,10.37
2019-05-16T20:37:21.620Z,10.34
2019-05-16T20:39:51.868Z,10.33
2019-05-16T20:42:21.429Z,10.33
2019-05-16T20:44:51.382Z,10.33
2019-05-16T20:47:22.715Z,10.34
2019-05-16T20:49:52.060Z,10.26
2019-05-16T20:52:21.263Z,10.23
2019-05-16T20:54:51.160Z,10.22
2019-05-16T20:57:20.807Z,10.23
2019-05-16T20:59:50.189Z,10.18
2019-05-16T21:02:19.665Z,10.17
2019-05-16T21:04:49.601Z,10.18
2019-05-16T21:07:19.707Z,10.17
2019-05-16T21:09:49.382Z,10.18
2019-05-16T21:12:19.949Z,10.18
2019-05-16T21:14:49.237Z,10.18
2019-05-16T21:17:18.219Z,10.19
2019-05-16T21:19:48.281Z,10.18
2019-05-16T21:22:19.304Z,10.19
2019-05-16T21:24:48.435Z,10.19
2019-05-16T21:27:19.046Z,10.16
2019-05-16T21:29:47.922Z,10.14
2019-05-16T21:32:16.656Z,10.13
2019-05-16T21:34:46.929Z,10.13
2019-05-16T21:37:17.976Z,10.14
2019-05-16T21:39:47.503Z,10.13
2019-05-16T21:42:16.657Z,10.12
2019-05-16T21:44:46.676Z,10.10
2019-05-16T21:47:16.921Z,10.12
2019-05-16T21:49:47.189Z,10.14
2019-05-16T21:52:16.287Z,10.16
2019-05-16T21:54:47.067Z,10.16
2019-05-16T21:57:19.625Z,10.14
2019-05-16T21:59:47.744Z,10.14
2019-05-16T22:02:16.858Z,10.14
2019-05-16T22:04:47.369Z,10.11
2019-05-16T22:07:16.588Z,10.10
2019-05-16T22:09:46.584Z,10.06
2019-05-16T22:12:17.353Z,10.04
2019-05-16T22:14:48.663Z,10.04
2019-05-16T22:17:17.291Z,10.00
2019-05-16T22:19:46.884Z,9.99
2019-05-16T22:22:16.539Z,10.00
2019-05-16T22:24:46.172Z,9.99
2019-05-16T22:27:17.324Z,10.00
2019-05-16T22:29:45.781Z,9.98
2019-05-16T22:32:16.443Z,9.94
2019-05-16T22:34:44.854Z,9.92
2019-05-16T22:37:13.447Z,9.91
2019-05-16T22:39:41.893Z,9.89
2019-05-16T22:42:10.427Z,9.89
2019-05-16T22:44:38.950Z,9.85
2019-05-16T22:47:07.484Z,9.81
2019-05-16T22:49:36.954Z,9.79
2019-05-16T22:52:06.635Z,9.80
2019-05-16T22:54:37.077Z,9.81
2019-05-16T22:57:06.672Z,9.82
2019-05-16T22:59:35.445Z,9.84
2019-05-16T23:02:10.662Z,9.85
2019-05-16T23:04:36.688Z,9.86
2019-05-16T23:07:06.998Z,9.82
2019-05-16T23:09:36.587Z,9.82
2019-05-16T23:12:07.078Z,9.80
2019-05-16T23:14:35.677Z,9.81
2019-05-16T23:17:06.520Z,9.80
2019-05-16T23:19:36.758Z,9.79
2019-05-16T23:22:07.368Z,9.79
2019-05-16T23:24:36.941Z,9.80
2019-05-16T23:27:06.962Z,9.80
2019-05-16T23:29:36.768Z,9.80
2019-05-16T23:32:07.364Z,9.79
2019-05-16T23:34:37.289Z,9.79
2019-05-16T23:37:06.565Z,9.77
2019-05-16T23:39:35.292Z,9.77
2019-05-16T23:42:06.230Z,9.76
2019-05-16T23:44:33.986Z,9.76
2019-05-16T23:47:02.599Z,9.75
2019-05-16T23:49:31.188Z,9.74
2019-05-16T23:51:59.712Z,9.73
2019-05-16T23:54:28.171Z,9.74
2019-05-16T23:56:57.270Z,9.72
2019-05-16T23:59:27.707Z,9.69
